Time;durP1;ratioP1;P1;durP2;ratioP2;P2;SDS_P1;SDS_P2;PMS_P1;PMS_P2;Temp;Humidity;BMP_temperature;BMP_pressure;BME280_temperature;BME280_humidity;BME280_pressure;Samples;Min_cycle;Max_cycle;Signal;HPM_P1;HPM_P2
2023/11/19 00:10:46;;;;;;;12.43;7.63;;;4.50;1.00;;;;;;5851517;24;20199;-87
2023/11/19 00:14:11;;;;;;;10.65;7.32;;;4.50;99.90;;;;;;5994981;23;20177;-87
2023/11/19 00:44:36;;;;;;;;;;;;;;;;;;;;;
2023/11/19 01:09:02;;;;;;;;;;;;;;;;;;;;;
2023/11/19 01:39:04;;;;;;;8.30;7.38;;;4.70;98.20;;;;;;5783399;24;20193;-88
2023/11/19 02:23:22;;;;;;;14.18;8.05;;;;;;;;;;5943495;24;20191;-90
2023/11/19 02:26:52;;;;;;;10.10;5.82;;;4.70;99.90;;;;;;5931010;24;20189;-88
2023/11/19 03:35:13;;;;;;;7.75;6.07;;;;;;;;;;5917048;24;20219;-85
2023/11/19 04:28:11;;;;;;;9.35;6.43;;;;;;;;;;5908382;24;20200;-88
2023/11/19 04:34:37;;;;;;;;;;;;;;;;;;;;;
2023/11/19 04:41:16;;;;;;;;;;;;;;;;;;;;;
2023/11/19 05:15:04;;;;;;;10.00;8.43;;;;;;;;;;6212274;23;20182;-88
2023/11/19 05:23:56;;;;;;;10.95;7.60;;;;;;;;;;6018907;23;20176;-89
2023/11/19 05:26:50;;;;;;;9.77;8.57;;;;;;;;;;6078917;23;20253;-88
2023/11/19 05:29:37;;;;;;;11.60;8.82;;;;;;;;;;6081139;23;20644;-85
2023/11/19 05:32:27;;;;;;;11.35;7.70;;;;;;;;;;6079878;23;20204;-88
2023/11/19 05:35:11;;;;;;;10.70;8.40;;;;;;;;;;6152959;23;20172;-88
2023/11/19 05:37:52;;;;;;;9.90;7.80;;;;;;;;;;6191295;23;20244;-88
2023/11/19 05:40:25;;;;;;;8.75;7.40;;;;;;;;;;6191579;23;20717;-88
2023/11/19 05:45:48;;;;;;;11.63;8.55;;;;;;;;;;6200106;23;20204;-87
2023/11/19 05:48:39;;;;;;;10.93;9.05;;;;;;;;;;6212826;23;20175;-88
2023/11/19 05:51:08;;;;;;;10.70;9.60;;;;;;;;;;6205241;23;20179;-88
2023/11/19 05:53:45;;;;;;;13.30;10.90;;;;;;;;;;6191182;23;20192;-88
2023/11/19 05:56:22;;;;;;;11.85;8.85;;;;;;;;;;6190356;23;20175;-88
2023/11/19 05:58:56;;;;;;;11.55;9.15;;;;;;;;;;6190816;23;20171;-88
2023/11/19 06:01:32;;;;;;;10.35;8.52;;;;;;;;;;6212150;23;20203;-87
2023/11/19 06:04:47;;;;;;;19.65;8.73;;;4.60;1.00;;;;;;6221017;23;20198;-88
2023/11/19 06:07:25;;;;;;;10.88;7.90;;;;;;;;;;6220678;23;20497;-86
2023/11/19 06:10:18;;;;;;;12.35;9.23;;;;;;;;;;6220468;23;20194;-88
2023/11/19 06:16:01;;;;;;;11.75;9.50;;;;;;;;;;6220672;23;20178;-88
2023/11/19 06:21:35;;;;;;;9.15;8.00;;;;;;;;;;6221067;23;20538;-87
2023/11/19 06:24:09;;;;;;;10.13;8.40;;;;;;;;;;6223635;23;20179;-87
2023/11/19 06:26:45;;;;;;;9.43;7.60;;;;;;;;;;6243784;23;20188;-86
2023/11/19 06:34:44;;;;;;;10.70;8.02;;;;;;;;;;6037445;23;20171;-87
2023/11/19 06:37:16;;;;;;;15.02;9.23;;;;;;;;;;6019331;23;20641;-88
2023/11/19 06:59:50;;;;;;;12.43;7.72;;;4.80;1.00;;;;;;6114451;23;20495;-89
2023/11/19 07:03:22;;;;;;;;;;;;;;;;;;;;;
2023/11/19 07:10:01;;;;;;;;;;;;;;;;;;;;;
2023/11/19 07:26:08;;;;;;;9.02;7.78;;;5.00;1.00;;;;;;6239928;23;20216;-89
2023/11/19 07:29:16;;;;;;;9.32;7.30;;;5.00;1.00;;;;;;6160839;23;20255;-87
2023/11/19 07:38:22;;;;;;;10.68;7.78;;;;;;;;;;6228975;23;20229;-87
2023/11/19 07:47:07;;;;;;;9.43;8.50;;;;;;;;;;6161298;23;20294;-88
2023/11/19 07:49:45;;;;;;;9.63;7.97;;;;;;;;;;6160916;23;20179;-86
2023/11/19 07:52:28;;;;;;;9.73;7.85;;;;;;;;;;6192997;23;20248;-86
2023/11/19 07:55:10;;;;;;;9.15;7.32;;;;;;;;;;6224682;23;20175;-87
2023/11/19 07:58:16;;;;;;;8.68;6.75;;;3.90;1.00;;;;;;6224868;23;20233;-87
2023/11/19 08:00:45;;;;;;;8.82;7.38;;;;;;;;;;6243630;23;20179;-87
2023/11/19 08:03:22;;;;;;;8.90;7.22;;;;;;;;;;6243525;23;20179;-87
2023/11/19 08:06:02;;;;;;;8.73;7.18;;;5.30;1.00;;;;;;6241094;23;20170;-87
2023/11/19 08:08:36;;;;;;;7.88;6.95;;;;;;;;;;6234776;23;20170;-87
2023/11/19 08:11:10;;;;;;;8.55;7.07;;;;;;;;;;6228272;23;20253;-87
2023/11/19 08:13:43;;;;;;;9.48;7.75;;;;;;;;;;6230800;23;20206;-87
2023/11/19 08:16:19;;;;;;;8.18;7.32;;;;;;;;;;6227429;23;20194;-87
2023/11/19 08:18:48;;;;;;;8.52;7.13;;;;;;;;;;6226257;23;20175;-87
2023/11/19 08:21:26;;;;;;;9.18;7.55;;;5.60;1.00;;;;;;6225084;23;20199;-87
2023/11/19 08:23:54;;;;;;;9.07;7.28;;;;;;;;;;6224470;23;20238;-88
2023/11/19 08:26:24;;;;;;;7.75;6.80;;;;;;;;;;6225170;23;20210;-87
2023/11/19 08:28:53;;;;;;;7.30;6.38;;;;;;;;;;6243914;23;20553;-87
2023/11/19 08:31:20;;;;;;;10.70;7.43;;;;;;;;;;6235622;23;20195;-88
2023/11/19 08:33:52;;;;;;;8.73;6.82;;;;;;;;;;6225164;23;20552;-86
2023/11/19 08:36:41;;;;;;;11.13;7.65;;;;;;;;;;6223715;23;20258;-87
2023/11/19 08:39:13;;;;;;;9.45;7.70;;;;;;;;;;6223708;23;20167;-87
2023/11/19 08:41:46;;;;;;;8.30;7.28;;;;;;;;;;6222261;23;20199;-87
2023/11/19 08:44:19;;;;;;;8.68;7.75;;;;;;;;;;6222656;23;20177;-87
2023/11/19 08:46:50;;;;;;;9.48;8.27;;;;;;;;;;6223124;23;20171;-87
2023/11/19 08:49:17;;;;;;;9.82;7.35;;;;;;;;;;6223250;23;20237;-85
2023/11/19 08:51:45;;;;;;;9.68;8.18;;;;;;;;;;6223461;23;20182;-88
2023/11/19 08:54:15;;;;;;;12.02;8.00;;;;;;;;;;6222520;23;20211;-86
2023/11/19 08:56:42;;;;;;;11.40;7.68;;;;;;;;;;6237061;23;20167;-88
2023/11/19 08:59:13;;;;;;;8.88;7.45;;;;;;;;;;6235975;23;20166;-84
2023/11/19 09:01:42;;;;;;;8.32;6.82;;;;;;;;;;6233237;23;20199;-87
2023/11/19 09:04:09;;;;;;;8.68;6.95;;;;;;;;;;6228974;23;20222;-86
2023/11/19 09:06:37;;;;;;;20.88;18.67;;;;;;;;;;6228282;23;20178;-86
2023/11/19 09:09:05;;;;;;;8.35;7.50;;;;;;;;;;6225998;23;20510;-87
2023/11/19 09:11:32;;;;;;;7.95;7.07;;;;;;;;;;6224899;23;20835;-87
2023/11/19 09:13:59;;;;;;;9.93;7.10;;;6.60;56.80;;;;;;6225280;23;20195;-87
2023/11/19 09:16:26;;;;;;;8.32;6.70;;;6.80;99.90;;;;;;6226040;23;20305;-87
2023/11/19 09:18:55;;;;;;;9.68;8.05;;;6.80;81.50;;;;;;6224858;23;20178;-87
2023/11/19 09:21:25;;;;;;;9.88;8.13;;;6.90;90.20;;;;;;6222851;23;20195;-89
2023/11/19 09:23:53;;;;;;;11.82;8.48;;;;;;;;;;6224568;23;20171;-86
2023/11/19 09:26:24;;;;;;;11.52;9.13;;;;;;;;;;6225972;23;20175;-88
2023/11/19 09:28:51;;;;;;;16.23;9.30;;;;;;;;;;6231942;23;20155;-87
2023/11/19 09:31:19;;;;;;;8.27;7.47;;;;;;;;;;6243971;23;20418;-87
2023/11/19 09:33:49;;;;;;;8.52;7.22;;;;;;;;;;6238005;23;20429;-87
2023/11/19 09:36:21;;;;;;;8.03;6.20;;;;;;;;;;6242034;23;20258;-86
2023/11/19 09:38:50;;;;;;;6.55;5.82;;;;;;;;;;6243730;23;20382;-87
2023/11/19 09:41:19;;;;;;;8.50;6.30;;;;;;;;;;6241873;23;20202;-87
2023/11/19 09:43:54;;;;;;;6.45;5.78;;;;;;;;;;6237132;23;20429;-87
2023/11/19 09:46:24;;;;;;;6.57;5.97;;;7.80;99.90;;;;;;6226481;23;20198;-86
2023/11/19 10:02:36;;;;;;;12.77;7.07;;;8.50;99.90;;;;;;6129216;23;20460;-88
2023/11/19 10:42:50;;;;;;;10.90;4.70;;;9.40;99.90;;;;;;5897083;24;20382;-87
2023/11/19 10:48:53;;;;;;;;;;;;;;;;;;;;;
2023/11/19 10:51:56;;;;;;;13.03;6.07;;;9.80;99.90;;;;;;6071674;23;20418;-85
2023/11/19 11:05:24;;;;;;;5.97;3.90;;;10.20;99.90;;;;;;5999221;24;20469;-87
2023/11/19 11:33:20;;;;;;;8.43;3.93;;;10.20;1.00;;;;;;5944934;23;20422;-88
2023/11/19 12:36:30;;;;;;;17.00;5.80;;;;;;;;;;5879039;23;20407;-86
2023/11/19 12:39:28;;;;;;;9.60;4.77;;;;;;;;;;6169726;23;20439;-87
2023/11/19 12:56:05;;;;;;;;;;;;;;;;;;;;;
2023/11/19 12:59:14;;;;;;;9.93;4.70;;;10.90;99.50;;;;;;6044648;23;20425;-86
2023/11/19 13:06:12;;;;;;;;;;;;;;;;;;;;;
2023/11/19 13:09:28;;;;;;;9.37;5.47;;;10.80;99.90;;;;;;5933871;24;20930;-87
2023/11/19 13:16:21;;;;;;;10.60;4.73;;;10.70;34.80;;;;;;5966468;23;20461;-86
2023/11/19 13:19:35;;;;;;;18.27;6.10;;;10.70;99.90;;;;;;6108479;23;20420;-88
2023/11/19 13:22:55;;;;;;;18.23;5.00;;;10.80;1.00;;;;;;6144439;23;20801;-87
2023/11/19 13:25:24;;;;;;;12.83;4.57;;;;;;;;;;6205519;23;20377;-85
2023/11/19 13:27:54;;;;;;;14.77;5.50;;;;;;;;;;6232156;23;20390;-87
2023/11/19 13:30:23;;;;;;;12.97;5.70;;;;;;;;;;6228149;23;20479;-86
2023/11/19 13:32:51;;;;;;;12.37;6.23;;;;;;;;;;6227033;23;20478;-86
2023/11/19 13:35:22;;;;;;;14.33;4.30;;;;;;;;;;6227423;23;20801;-86
2023/11/19 13:38:14;;;;;;;16.67;4.70;;;;;;;;;;6226368;23;20440;-87
2023/11/19 13:44:04;;;;;;;19.13;5.37;;;;;;;;;;6225711;23;20402;-87
2023/11/19 13:46:40;;;;;;;16.33;4.77;;;;;;;;;;6236501;23;20413;-86
2023/11/19 13:55:08;;;;;;;12.03;4.90;;;;;;;;;;6212061;23;20434;-86
2023/11/19 13:57:53;;;;;;;14.93;4.80;;;;;;;;;;6227558;23;20444;-88
2023/11/19 14:03:30;;;;;;;;;;;;;;;;;;;;;
2023/11/19 14:06:23;;;;;;;7.90;4.40;;;;;;;;;;6165068;23;20419;-88
2023/11/19 14:12:17;;;;;;;15.07;6.70;;;;;;;;;;6120340;23;20421;-87
2023/11/19 14:26:33;;;;;;;20.27;6.50;;;;;;;;;;6212508;23;20386;-88
2023/11/19 14:29:30;;;;;;;;;;;;;;;;;;;;;
2023/11/19 14:32:08;;;;;;;15.53;6.20;;;;;;;;;;6225241;23;20434;-88
2023/11/19 14:34:43;;;;;;;13.23;6.50;;;10.70;99.90;;;;;;6233092;23;20442;-88
2023/11/19 14:41:29;;;;;;;21.67;7.00;;;10.80;67.40;;;;;;6125982;23;20412;-87
2023/11/19 14:54:21;;;;;;;13.53;6.53;;;11.00;1.00;;;;;;6170412;23;20431;-87
2023/11/19 15:41:59;;;;;;;20.50;6.53;;;10.30;99.90;;;;;;6018359;23;20440;-88
2023/11/19 16:20:52;;;;;;;22.83;6.83;;;10.30;99.90;;;;;;6022063;23;20451;-86
2023/11/19 19:21:09;;;;;;;24.90;9.13;;;9.40;10.90;;;;;;5921448;24;20495;-90
2023/11/19 19:24:41;;;;;;;21.73;10.37;;;9.50;16.10;;;;;;5993630;23;20417;-87
2023/11/19 19:54:29;;;;;;;21.30;11.20;;;9.60;1.00;;;;;;6204208;23;20409;-89
2023/11/19 20:08:18;;;;;;;;;;;;;;;;;;;;;
2023/11/19 20:11:33;;;;;;;22.43;6.60;;;9.70;1.00;;;;;;6173900;23;20930;-87
2023/11/19 20:14:05;;;;;;;29.13;7.77;;;;;;;;;;6107621;23;21035;-90
2023/11/19 20:16:32;;;;;;;17.93;7.70;;;;;;;;;;6179207;23;20972;-88
2023/11/19 20:19:10;;;;;;;13.53;6.60;;;;;;;;;;6235643;23;20398;-90
2023/11/19 20:25:18;;;;;;;15.67;6.53;;;9.70;1.00;;;;;;6231947;23;20893;-90
2023/11/19 21:17:15;;;;;;;20.57;5.50;;;9.50;1.00;;;;;;6244780;23;20452;-90
2023/11/19 21:25:21;;;;;;;18.83;7.10;;;;;;;;;;6207964;22;20438;-96
2023/11/19 21:30:44;;;;;;;13.73;5.37;;;;;;;;;;6224293;22;20467;-92
2023/11/19 21:33:53;;;;;;;18.10;6.77;;;9.30;1.00;;;;;;6242554;23;20383;-91
2023/11/19 21:53:04;;;;;;;13.40;5.37;;;9.30;1.00;;;;;;5094216;27;1382893;-90
2023/11/19 21:55:36;;;;;;;15.80;5.20;;;;;;;;;;5096707;28;20488;-90
2023/11/19 21:58:06;;;;;;;12.60;4.57;;;;;;;;;;5094050;28;20426;-89
2023/11/19 22:00:39;;;;;;;10.93;4.83;;;;;;;;;;5094414;28;20473;-91
2023/11/19 22:03:07;;;;;;;11.63;5.43;;;;;;;;;;5093016;28;20443;-90
2023/11/19 22:05:38;;;;;;;11.70;6.23;;;;;;;;;;5087706;28;20439;-91
2023/11/19 22:08:14;;;;;;;14.13;6.70;;;;;;;;;;5086876;28;20427;-91
2023/11/19 22:10:43;;;;;;;12.73;6.03;;;;;;;;;;5091160;28;20420;-90
2023/11/19 22:13:13;;;;;;;20.93;5.50;;;;;;;;;;5087780;28;20632;-91
2023/11/19 22:15:40;;;;;;;14.17;5.60;;;;;;;;;;5086721;28;20465;-91
2023/11/19 22:18:11;;;;;;;13.77;5.00;;;;;;;;;;5085937;28;20522;-91
2023/11/19 22:20:43;;;;;;;8.03;4.73;;;;;;;;;;5087824;28;20443;-92
2023/11/19 22:23:21;;;;;;;17.50;5.20;;;;;;;;;;5094645;28;20516;-89
2023/11/19 22:25:51;;;;;;;16.57;5.87;;;;;;;;;;5090752;28;20427;-90
2023/11/19 22:28:18;;;;;;;14.33;4.90;;;;;;;;;;5087980;28;20457;-91
2023/11/19 22:30:46;;;;;;;18.33;6.33;;;;;;;;;;5085195;28;20449;-90
2023/11/19 22:33:16;;;;;;;9.23;5.37;;;9.00;99.90;;;;;;5091882;28;20483;-90
2023/11/19 22:35:44;;;;;;;11.50;4.70;;;;;;;;;;5087120;28;20469;-91
2023/11/19 22:38:13;;;;;;;9.10;6.70;;;;;;;;;;5084761;28;20549;-91
2023/11/19 22:40:40;;;;;;;9.10;5.80;;;9.20;99.90;;;;;;5085282;28;20437;-91
2023/11/19 22:43:07;;;;;;;10.83;5.63;;;;;;;;;;5087835;28;20429;-90
2023/11/19 22:45:35;;;;;;;11.37;5.17;;;;;;;;;;5089046;28;20518;-90
2023/11/19 22:48:02;;;;;;;12.27;6.00;;;;;;;;;;5088468;28;20419;-91
2023/11/19 22:50:29;;;;;;;9.30;4.90;;;;;;;;;;5089519;28;20455;-91
2023/11/19 22:52:57;;;;;;;12.73;5.17;;;;;;;;;;5079616;28;20460;-92
2023/11/19 22:55:34;;;;;;;14.13;6.17;;;;;;;;;;5071628;28;20479;-90
2023/11/19 22:58:03;;;;;;;13.53;6.00;;;;;;;;;;5074875;28;20898;-90
2023/11/19 23:00:30;;;;;;;10.87;5.40;;;;;;;;;;5079897;28;20509;-91
2023/11/19 23:03:03;;;;;;;17.40;6.53;;;;;;;;;;5074113;28;20460;-91
2023/11/19 23:05:35;;;;;;;7.60;6.57;;;;;;;;;;5075315;28;20462;-91
2023/11/19 23:08:02;;;;;;;10.70;5.80;;;;;;;;;;5074390;28;20446;-92
2023/11/19 23:10:36;;;;;;;17.40;5.50;;;;;;;;;;5074180;28;20437;-89
2023/11/19 23:13:06;;;;;;;15.07;6.03;;;;;;;;;;5069207;28;20777;-90
2023/11/19 23:15:33;;;;;;;18.73;6.70;;;;;;;;;;5069380;28;20500;-90
2023/11/19 23:18:02;;;;;;;13.20;5.70;;;;;;;;;;5068401;28;20438;-91
2023/11/19 23:20:29;;;;;;;9.50;5.47;;;;;;;;;;5070072;28;20453;-91
2023/11/19 23:22:56;;;;;;;12.00;5.63;;;;;;;;;;5071700;28;20479;-91
2023/11/19 23:25:23;;;;;;;12.53;6.27;;;;;;;;;;5073628;28;20548;-91
2023/11/19 23:27:52;;;;;;;10.57;5.43;;;9.50;99.90;;;;;;5079558;28;20425;-89
2023/11/19 23:30:22;;;;;;;10.73;5.30;;;;;;;;;;5080809;28;20418;-90
2023/11/19 23:32:52;;;;;;;14.87;5.80;;;;;;;;;;5080607;28;20428;-89
2023/11/19 23:35:19;;;;;;;9.20;5.10;;;;;;;;;;5077008;28;20800;-90
2023/11/19 23:37:46;;;;;;;7.43;4.80;;;;;;;;;;5070533;28;20473;-90
2023/11/19 23:40:18;;;;;;;11.13;5.10;;;;;;;;;;5068453;28;20460;-91
2023/11/19 23:42:48;;;;;;;19.07;5.50;;;;;;;;;;5068318;28;20473;-91
2023/11/19 23:45:16;;;;;;;13.50;5.37;;;;;;;;;;5067025;28;20508;-91
2023/11/19 23:47:44;;;;;;;15.23;5.60;;;;;;;;;;5071443;28;20484;-90
2023/11/19 23:50:11;;;;;;;10.17;5.00;;;;;;;;;;5067729;28;20438;-92
2023/11/19 23:52:44;;;;;;;11.83;5.60;;;;;;;;;;5067043;28;20453;-91
2023/11/19 23:55:16;;;;;;;11.80;4.80;;;;;;;;;;5071964;28;20457;-88
2023/11/19 23:57:45;;;;;;;11.50;5.47;;;;;;;;;;5067780;28;20430;-90
